Time;durP1;ratioP1;P1;durP2;ratioP2;P2;SDS_P1;SDS_P2;PMS_P1;PMS_P2;Temp;Humidity;BMP_temperature;BMP_pressure;BME280_temperature;BME280_humidity;BME280_pressure;Samples;Min_cycle;Max_cycle;Signal;HPM_P1;HPM_P2
2022/03/16 00:00:21;;;;;;;124.50;61.40;;;;;;;3.58;100.00;102515.84;4999003;28;20044;-68
2022/03/16 00:02:47;;;;;;;141.63;64.88;;;;;;;3.57;100.00;102507.13;4998428;28;20131;-67
2022/03/16 00:05:14;;;;;;;138.80;66.05;;;;;;;3.58;100.00;102508.88;4998344;28;20408;-67
2022/03/16 00:07:40;;;;;;;134.73;63.45;;;;;;;3.59;100.00;102508.00;4998897;28;20634;-67
2022/03/16 00:10:07;;;;;;;140.18;66.93;;;;;;;3.62;100.00;102494.97;4997728;28;20050;-67
2022/03/16 00:12:34;;;;;;;155.02;69.32;;;;;;;3.66;100.00;102507.22;5000687;28;20033;-67
2022/03/16 00:14:59;;;;;;;126.35;60.08;;;;;;;3.65;100.00;102515.06;5000855;28;20326;-67
2022/03/16 00:17:25;;;;;;;133.25;61.85;;;;;;;3.60;100.00;102515.00;4999257;28;20041;-67
2022/03/16 00:19:51;;;;;;;115.38;55.47;;;;;;;3.57;100.00;102520.22;4998465;28;20049;-67
2022/03/16 00:22:16;;;;;;;119.28;60.70;;;;;;;3.52;100.00;102514.03;5000268;28;20041;-67
2022/03/16 00:24:42;;;;;;;123.50;60.80;;;;;;;3.50;100.00;102513.16;5002731;28;20099;-67
2022/03/16 00:27:08;;;;;;;148.40;66.13;;;;;;;3.48;100.00;102517.50;5005029;28;20044;-67
2022/03/16 00:29:33;;;;;;;151.88;67.65;;;;;;;3.48;100.00;102520.13;5017971;28;20566;-67
2022/03/16 00:31:59;;;;;;;138.48;64.93;;;;;;;3.47;100.00;102516.63;5003700;28;20053;-67
2022/03/16 00:34:25;;;;;;;158.73;69.85;;;;;;;3.44;100.00;102532.31;5002709;28;20484;-67
2022/03/16 00:36:50;;;;;;;151.73;67.45;;;;;;;3.40;100.00;102526.13;4999267;28;20308;-67
2022/03/16 00:39:16;;;;;;;141.60;66.93;;;;;;;3.38;100.00;102527.88;5001554;28;20030;-67
2022/03/16 00:41:41;;;;;;;145.27;65.13;;;;;;;3.37;100.00;102530.44;5005432;28;20022;-67
2022/03/16 00:44:07;;;;;;;133.48;65.22;;;;;;;3.38;100.00;102533.09;5002844;28;20026;-67
2022/03/16 00:46:33;;;;;;;143.82;66.07;;;;;;;3.40;100.00;102530.50;5003268;28;20394;-67
2022/03/16 00:48:59;;;;;;;157.48;69.93;;;;;;;3.42;100.00;102535.78;4985912;28;20195;-67
2022/03/16 00:51:25;;;;;;;145.90;66.30;;;;;;;3.45;100.00;102535.78;5004001;28;20045;-67
2022/03/16 00:53:52;;;;;;;140.10;65.75;;;;;;;3.45;100.00;102533.19;5004534;28;20466;-67
2022/03/16 00:56:18;;;;;;;139.27;64.95;;;;;;;3.46;100.00;102535.81;5005185;28;20034;-67
2022/03/16 00:58:43;;;;;;;147.82;67.57;;;;;;;3.46;100.00;102538.44;5003212;28;20029;-67
2022/03/16 01:01:09;;;;;;;154.65;67.47;;;;;;;3.43;100.00;102534.91;5003379;28;20045;-67
2022/03/16 01:03:35;;;;;;;146.30;67.30;;;;;;;3.42;100.00;102538.41;5004853;28;20100;-67
2022/03/16 01:06:01;;;;;;;144.30;65.38;;;;;;;3.39;100.00;102534.84;4985595;28;20049;-67
2022/03/16 01:08:27;;;;;;;150.88;66.43;;;;;;;3.37;100.00;102533.06;5004419;28;20049;-66
2022/03/16 01:10:53;;;;;;;140.05;64.53;;;;;;;3.36;100.00;102533.94;4988486;28;20072;-66
2022/03/16 01:13:18;;;;;;;143.05;65.10;;;;;;;3.35;100.00;102530.47;4992974;28;20064;-66
2022/03/16 01:15:44;;;;;;;133.98;61.05;;;;;;;3.35;100.00;102526.94;4986502;28;20029;-66
2022/03/16 01:18:09;;;;;;;135.18;63.60;;;;;;;3.34;100.00;102526.09;4985937;28;20030;-66
2022/03/16 01:20:35;;;;;;;144.40;64.50;;;;;;;3.33;100.00;102529.53;4971604;28;20030;-67
2022/03/16 01:23:00;;;;;;;126.32;60.10;;;;;;;3.33;100.00;102526.91;5002321;28;20197;-66
2022/03/16 01:25:26;;;;;;;140.30;63.38;;;;;;;3.31;100.00;102528.66;5004615;28;20466;-67
2022/03/16 01:27:51;;;;;;;118.30;58.40;;;;;;;3.28;100.00;102520.78;5003050;28;20046;-67
2022/03/16 01:30:17;;;;;;;150.20;64.80;;;;;;;3.26;100.00;102525.09;5001137;28;20079;-66
2022/03/16 01:32:43;;;;;;;156.10;68.00;;;;;;;3.26;100.00;102527.72;5005382;28;20029;-68
2022/03/16 01:35:09;;;;;;;165.15;70.85;;;;;;;3.27;100.00;102532.09;5002439;28;20044;-67
2022/03/16 01:37:35;;;;;;;152.00;67.88;;;;;;;3.26;100.00;102528.59;5000651;28;20701;-66
2022/03/16 01:40:01;;;;;;;158.57;67.70;;;;;;;3.26;100.00;102525.97;5003910;28;20128;-67
2022/03/16 01:42:26;;;;;;;134.52;62.95;;;;;;;3.25;100.00;102523.34;5004365;28;20119;-67
2022/03/16 01:44:54;;;;;;;129.18;61.50;;;;;;;3.23;100.00;102538.16;4986143;28;20075;-67
2022/03/16 01:47:21;;;;;;;143.38;66.10;;;;;;;3.21;100.00;102532.03;4985284;28;20733;-67
2022/03/16 01:49:48;;;;;;;133.63;62.85;;;;;;;3.23;100.00;102532.94;5003595;28;20127;-67
2022/03/16 01:52:22;;;;;;;147.55;67.43;;;;;;;3.22;100.00;102532.03;5000829;28;20104;-67
2022/03/16 01:54:48;;;;;;;147.05;67.72;;;;;;;3.19;100.00;102532.00;5003976;28;21407;-67
2022/03/16 01:57:15;;;;;;;147.35;66.72;;;;;;;3.18;100.00;102524.13;5003787;28;20029;-67
2022/03/16 01:59:41;;;;;;;136.27;66.38;;;;;;;3.18;100.00;102513.66;5003447;28;20593;-67
2022/03/16 02:02:07;;;;;;;158.18;70.50;;;;;;;3.19;100.00;102520.66;5002748;28;20745;-67
2022/03/16 02:04:33;;;;;;;174.70;73.22;;;;;;;3.17;100.00;102527.59;5005042;28;20052;-67
2022/03/16 02:06:59;;;;;;;154.68;71.35;;;;;;;3.17;100.00;102517.13;5000060;28;20396;-67
2022/03/16 02:09:25;;;;;;;153.73;68.85;;;;;;;3.16;100.00;102520.63;4990578;28;20408;-67
2022/03/16 02:11:50;;;;;;;141.95;68.75;;;;;;;3.16;100.00;102515.38;4985740;28;20052;-67
2022/03/16 02:14:17;;;;;;;134.40;64.03;;;;;;;3.18;100.00;102524.13;4974937;28;20182;-67
2022/03/16 02:16:46;;;;;;;147.95;69.70;;;;;;;3.19;100.00;102525.88;4988519;28;20590;-67
2022/03/16 02:19:12;;;;;;;142.57;68.75;;;;;;;3.18;100.00;102525.03;5003200;28;20040;-67
2022/03/16 02:21:39;;;;;;;156.30;70.35;;;;;;;3.18;100.00;102524.13;4984712;28;20033;-67
2022/03/16 02:24:05;;;;;;;141.18;67.10;;;;;;;3.15;100.00;102534.56;5003084;28;20029;-67
2022/03/16 02:26:30;;;;;;;146.18;67.38;;;;;;;3.09;100.00;102531.00;5003491;28;20041;-67
2022/03/16 02:28:57;;;;;;;138.65;64.63;;;;;;;3.05;100.00;102537.06;5003740;28;20664;-67
2022/03/16 02:31:24;;;;;;;137.13;63.33;;;;;;;3.01;100.00;102537.00;5003083;28;20033;-68
2022/03/16 02:33:49;;;;;;;155.80;66.22;;;;;;;2.96;100.00;102545.66;4999591;28;20041;-67
2022/03/16 02:36:15;;;;;;;137.88;63.15;;;;;;;2.89;100.00;102537.72;5001274;28;20287;-67
2022/03/16 02:38:40;;;;;;;150.52;65.53;;;;;;;2.83;100.00;102539.38;5003172;28;20037;-67
2022/03/16 02:41:06;;;;;;;161.48;68.75;;;;;;;2.80;100.00;102546.31;5004613;28;20029;-66
2022/03/16 02:43:31;;;;;;;137.05;63.33;;;;;;;2.75;100.00;102545.34;5004654;28;20037;-66
2022/03/16 02:45:57;;;;;;;155.25;69.00;;;;;;;2.73;100.00;102545.34;5000743;28;20029;-67
2022/03/16 02:48:22;;;;;;;140.43;64.72;;;;;;;2.70;100.00;102547.91;5002934;28;20192;-67
2022/03/16 02:50:49;;;;;;;176.30;72.07;;;;;;;2.69;100.00;102548.78;4984685;28;20037;-67
2022/03/16 02:53:15;;;;;;;159.02;70.93;;;;;;;2.66;100.00;102551.34;5001620;28;20556;-67
2022/03/16 02:55:45;;;;;;;156.35;68.75;;;;;;;2.65;100.00;102549.56;5002321;28;20384;-67
2022/03/16 02:58:14;;;;;;;169.05;71.65;;;;;;;2.63;100.00;102551.28;5000740;28;20033;-66
2022/03/16 03:00:40;;;;;;;160.57;70.88;;;;;;;2.60;100.00;102544.28;4970220;28;20025;-67
2022/03/16 03:03:06;;;;;;;140.63;65.72;;;;;;;2.57;100.00;102537.25;4989390;28;20099;-67
2022/03/16 03:05:31;;;;;;;155.13;68.85;;;;;;;2.56;100.00;102535.50;5002554;28;20047;-67
2022/03/16 03:07:57;;;;;;;139.45;64.22;;;;;;;2.54;100.00;102537.22;4982100;28;20034;-66
2022/03/16 03:10:22;;;;;;;175.55;73.55;;;;;;;2.53;100.00;102538.09;4983147;28;20184;-67
2022/03/16 03:12:48;;;;;;;157.00;68.57;;;;;;;2.54;100.00;102537.22;4982764;28;20110;-67
2022/03/16 03:15:14;;;;;;;181.27;77.00;;;;;;;2.56;100.00;102539.88;4982654;28;20085;-67
2022/03/16 03:17:41;;;;;;;195.00;78.82;;;;;;;2.57;100.00;102544.25;4979767;28;20382;-67
2022/03/16 03:20:08;;;;;;;189.48;81.50;;;;;;;2.59;100.00;102534.66;4983620;28;20038;-67
2022/03/16 03:22:33;;;;;;;209.25;85.10;;;;;;;2.61;100.00;102532.09;4982578;28;20478;-67
2022/03/16 03:24:59;;;;;;;233.48;90.20;;;;;;;2.60;100.00;102533.81;4983766;28;20038;-67
2022/03/16 03:27:25;;;;;;;214.65;87.30;;;;;;;2.60;100.00;102533.81;4981661;28;21376;-67
2022/03/16 03:29:51;;;;;;;214.00;83.22;;;;;;;2.59;100.00;102539.91;4983647;28;20568;-66
2022/03/16 03:32:17;;;;;;;198.77;80.45;;;;;;;2.57;100.00;102542.47;4983328;28;20050;-67
2022/03/16 03:34:51;;;;;;;237.02;89.57;;;;;;;2.54;100.00;102528.47;4983505;28;20022;-66
2022/03/16 03:37:18;;;;;;;233.30;88.05;;;;;;;2.51;100.00;102539.78;4996086;28;20038;-66
2022/03/16 03:39:44;;;;;;;209.50;85.15;;;;;;;2.49;100.00;102536.25;4998862;28;20105;-67
2022/03/16 03:42:10;;;;;;;195.40;82.68;;;;;;;2.48;100.00;102546.69;4983749;28;20026;-67
2022/03/16 03:44:37;;;;;;;193.00;83.10;;;;;;;2.46;100.00;102537.94;4984384;28;20651;-67
2022/03/16 03:47:07;;;;;;;240.20;90.75;;;;;;;2.45;100.00;102542.28;4982996;28;20359;-67
2022/03/16 03:49:37;;;;;;;191.95;79.45;;;;;;;2.46;100.00;102540.56;4983808;28;20026;-67
2022/03/16 03:52:03;;;;;;;247.90;93.95;;;;;;;2.46;100.00;102545.78;4980904;28;20161;-67
2022/03/16 03:54:29;;;;;;;241.38;93.15;;;;;;;2.44;100.00;102540.53;4983644;28;20041;-67
2022/03/16 03:56:55;;;;;;;214.30;87.30;;;;;;;2.44;100.00;102536.19;4983102;28;20038;-67
2022/03/16 03:59:21;;;;;;;227.88;90.47;;;;;;;2.45;100.00;102537.06;4986157;28;20033;-67
2022/03/16 04:01:47;;;;;;;224.48;90.07;;;;;;;2.43;100.00;102530.94;4986787;28;20037;-67
2022/03/16 04:04:13;;;;;;;223.43;89.18;;;;;;;2.42;100.00;102531.78;4984752;28;20033;-67
2022/03/16 04:06:39;;;;;;;227.93;90.63;;;;;;;2.42;100.00;102531.78;4986128;28;20030;-67
2022/03/16 04:09:05;;;;;;;230.45;91.50;;;;;;;2.40;100.00;102534.38;4975047;28;20044;-67
2022/03/16 04:11:31;;;;;;;208.90;86.43;;;;;;;2.41;100.00;102538.75;5006141;28;20516;-67
2022/03/16 04:13:56;;;;;;;210.13;85.40;;;;;;;2.39;100.00;102537.00;5006689;28;20068;-67
2022/03/16 04:16:22;;;;;;;168.40;76.25;;;;;;;2.37;100.00;102536.06;5006144;28;20219;-67
2022/03/16 04:18:48;;;;;;;234.80;88.50;;;;;;;2.33;100.00;102537.75;5005825;28;20041;-67
2022/03/16 04:21:13;;;;;;;204.77;81.63;;;;;;;2.31;100.00;102539.47;5005320;28;20068;-67
2022/03/16 04:23:38;;;;;;;209.05;85.55;;;;;;;2.29;100.00;102535.97;4986987;28;20335;-67
2022/03/16 04:26:04;;;;;;;244.45;90.15;;;;;;;2.28;100.00;102532.44;5007491;28;20026;-67
2022/03/16 04:28:29;;;;;;;359.50;102.20;;;;;;;2.28;100.00;102531.56;4990891;28;20485;-67
2022/03/16 04:30:55;;;;;;;255.15;89.85;;;;;;;2.27;100.00;102532.41;4990753;28;20038;-67
2022/03/16 04:33:21;;;;;;;230.63;81.10;;;;;;;2.24;100.00;102535.84;5007084;28;20029;-67
2022/03/16 04:35:46;;;;;;;308.55;91.40;;;;;;;2.24;100.00;102529.78;5007585;28;20021;-68
2022/03/16 04:38:12;;;;;;;589.35;129.13;;;;;;;2.23;100.00;102526.25;5005644;28;20060;-68
2022/03/16 04:40:37;;;;;;;457.90;112.30;;;;;;;2.25;100.00;102528.91;5006575;28;20034;-67
2022/03/16 04:43:03;;;;;;;312.80;93.88;;;;;;;2.27;100.00;102521.97;5005313;28;20041;-68
2022/03/16 04:45:29;;;;;;;330.08;101.55;;;;;;;2.28;100.00;102515.88;4988855;28;21442;-66
2022/03/16 04:47:55;;;;;;;251.75;96.93;;;;;;;2.28;100.00;102514.16;5004565;28;20548;-66
2022/03/16 04:50:21;;;;;;;174.65;82.28;;;;;;;2.30;100.00;102507.22;5005633;28;20042;-67
2022/03/16 04:52:48;;;;;;;216.10;85.40;;;;;;;2.30;100.00;102512.44;5003986;28;20254;-66
2022/03/16 04:55:14;;;;;;;163.75;78.20;;;;;;;2.31;100.00;102508.97;4986337;28;20048;-67
2022/03/16 04:57:40;;;;;;;192.52;83.90;;;;;;;2.34;100.00;102512.50;5005170;28;20656;-66
2022/03/16 05:00:07;;;;;;;174.57;81.05;;;;;;;2.34;100.00;102502.91;4989159;28;20524;-67
2022/03/16 05:02:32;;;;;;;176.60;81.97;;;;;;;2.36;100.00;102516.00;4986632;28;20532;-67
2022/03/16 05:04:58;;;;;;;199.23;87.68;;;;;;;2.40;100.00;102512.59;5004624;28;20164;-67
2022/03/16 05:07:23;;;;;;;179.38;82.85;;;;;;;2.40;100.00;102518.69;5001689;28;20080;-66
2022/03/16 05:09:49;;;;;;;182.10;84.28;;;;;;;2.43;100.00;102524.00;4999119;28;20060;-67
2022/03/16 05:12:14;;;;;;;210.93;93.00;;;;;;;2.45;100.00;102516.16;4983904;28;20677;-66
2022/03/16 05:14:40;;;;;;;214.98;92.65;;;;;;;2.48;100.00;102526.66;5004261;28;20038;-67
2022/03/16 05:17:05;;;;;;;199.65;91.22;;;;;;;2.49;100.00;102525.81;4984687;28;20028;-67
2022/03/16 05:19:31;;;;;;;207.27;92.50;;;;;;;2.48;100.00;102525.78;5004134;28;20033;-67
2022/03/16 05:21:57;;;;;;;189.57;87.05;;;;;;;2.47;100.00;102527.53;4985871;28;20146;-67
2022/03/16 05:24:24;;;;;;;218.93;94.07;;;;;;;2.49;100.00;102522.31;5004906;28;20025;-67
2022/03/16 05:26:50;;;;;;;205.60;92.78;;;;;;;2.50;100.00;102519.72;5003804;28;20029;-67
2022/03/16 05:29:16;;;;;;;185.23;86.40;;;;;;;2.50;100.00;102517.09;5004097;28;20109;-67
2022/03/16 05:31:42;;;;;;;173.35;81.88;;;;;;;2.51;100.00;102521.47;5004300;28;20503;-67
2022/03/16 05:34:08;;;;;;;214.20;92.93;;;;;;;2.48;100.00;102521.44;4985702;28;20492;-66
2022/03/16 05:36:34;;;;;;;184.15;83.90;;;;;;;2.48;100.00;102516.22;5003675;28;20165;-67
2022/03/16 05:38:59;;;;;;;192.63;87.15;;;;;;;2.46;100.00;102517.94;5002536;28;20087;-67
2022/03/16 05:41:25;;;;;;;168.77;80.63;;;;;;;2.46;100.00;102525.78;5004861;28;20037;-66
2022/03/16 05:43:50;;;;;;;167.80;78.38;;;;;;;2.48;100.00;102531.91;5004228;28;20037;-66
2022/03/16 05:46:16;;;;;;;187.82;85.90;;;;;;;2.48;100.00;102528.38;5002002;28;20034;-66
2022/03/16 05:48:41;;;;;;;182.75;84.00;;;;;;;2.48;100.00;102534.50;5003852;28;20057;-67
2022/03/16 05:51:08;;;;;;;197.38;87.15;;;;;;;2.47;100.00;102537.97;4983586;28;20442;-67
2022/03/16 05:53:33;;;;;;;172.27;80.22;;;;;;;2.43;100.00;102539.69;5002230;28;20509;-67
2022/03/16 05:55:59;;;;;;;183.20;83.40;;;;;;;2.42;100.00;102544.88;5002311;28;20044;-67
2022/03/16 05:58:25;;;;;;;199.80;85.43;;;;;;;2.38;100.00;102533.47;4985728;28;20037;-67
2022/03/16 06:00:50;;;;;;;207.45;87.10;;;;;;;2.36;100.00;102553.50;5003625;28;20045;-66
2022/03/16 06:03:15;;;;;;;176.90;81.97;;;;;;;2.36;100.00;102552.63;4985249;28;20124;-67
2022/03/16 06:05:41;;;;;;;180.40;81.60;;;;;;;2.35;100.00;102556.09;5002882;28;20033;-67
2022/03/16 06:08:06;;;;;;;173.23;78.88;;;;;;;2.36;100.00;102555.22;5000318;28;20041;-67
2022/03/16 06:10:32;;;;;;;184.82;84.60;;;;;;;2.36;100.00;102553.50;5002976;28;21550;-67
2022/03/16 06:13:00;;;;;;;181.82;82.72;;;;;;;2.37;100.00;102549.13;5003747;28;20041;-66
2022/03/16 06:15:28;;;;;;;182.73;84.93;;;;;;;2.39;100.00;102552.69;5004387;28;20127;-67
2022/03/16 06:17:55;;;;;;;171.73;83.20;;;;;;;2.40;100.00;102554.44;5005537;28;20101;-66
2022/03/16 06:20:21;;;;;;;179.18;81.85;;;;;;;2.41;100.00;102572.72;4987315;28;20037;-67
2022/03/16 06:22:46;;;;;;;173.68;81.95;;;;;;;2.42;100.00;102560.56;5003712;28;20036;-67
2022/03/16 06:25:12;;;;;;;165.82;79.80;;;;;;;2.42;100.00;102563.16;4986098;28;20099;-67
2022/03/16 06:27:38;;;;;;;172.48;83.60;;;;;;;2.43;100.00;102565.81;5003600;28;20040;-67
2022/03/16 06:30:04;;;;;;;165.55;82.68;;;;;;;2.45;100.00;102563.22;5002172;28;20500;-66
2022/03/16 06:32:30;;;;;;;168.85;82.00;;;;;;;2.49;100.00;102558.91;4984230;28;20519;-67
2022/03/16 06:34:55;;;;;;;169.35;85.03;;;;;;;2.54;100.00;102555.53;5003895;28;20033;-67
2022/03/16 06:37:21;;;;;;;161.82;85.07;;;;;;;2.62;100.00;102566.09;5004660;28;20171;-67
2022/03/16 06:39:46;;;;;;;164.23;84.15;;;;;;;2.69;100.00;102562.75;5002882;28;20037;-67
2022/03/16 06:42:12;;;;;;;169.93;86.82;;;;;;;2.78;100.00;102561.09;5004606;28;20064;-67
2022/03/16 06:44:37;;;;;;;171.63;85.35;;;;;;;2.81;100.00;102562.03;5000761;28;20061;-67
2022/03/16 06:47:03;;;;;;;173.93;87.72;;;;;;;2.83;100.00;102555.06;5000605;28;20727;-66
2022/03/16 06:49:29;;;;;;;166.10;82.95;;;;;;;2.89;100.00;102563.88;4985113;28;20049;-67
2022/03/16 06:51:54;;;;;;;155.23;81.13;;;;;;;2.90;100.00;102566.53;4987927;28;20555;-67
2022/03/16 06:54:20;;;;;;;149.73;80.03;;;;;;;2.92;100.00;102570.03;5002527;28;20034;-67
2022/03/16 06:56:45;;;;;;;150.38;80.13;;;;;;;2.95;100.00;102567.44;4984094;28;20037;-66
2022/03/16 06:59:11;;;;;;;140.80;75.72;;;;;;;2.97;100.00;102577.94;5003568;28;20033;-67
2022/03/16 07:01:37;;;;;;;158.65;80.35;;;;;;;2.97;100.00;102573.59;5003508;28;20030;-67
2022/03/16 07:04:03;;;;;;;137.95;74.85;;;;;;;3.01;100.00;102573.63;5004121;28;20361;-67
2022/03/16 07:06:29;;;;;;;148.52;78.38;;;;;;;3.05;100.00;102585.91;4988008;28;20056;-67
2022/03/16 07:08:55;;;;;;;151.63;80.47;;;;;;;3.08;100.00;102578.97;5001540;28;20749;-67
2022/03/16 07:11:20;;;;;;;129.52;73.70;;;;;;;3.14;100.00;102585.16;4999896;28;20053;-67
2022/03/16 07:14:30;;;;;;;145.50;77.45;;;;;;;3.15;100.00;102584.31;5003098;28;20124;-68
2022/03/16 07:16:32;;;;;;;135.57;73.63;;;;;;;3.19;100.00;102586.09;5002702;28;20029;-68
2022/03/16 07:18:58;;;;;;;139.32;77.32;;;;;;;3.21;100.00;102584.38;4986017;28;20033;-67
2022/03/16 07:21:24;;;;;;;133.32;75.72;;;;;;;3.25;100.00;102587.06;5003449;28;20123;-67
2022/03/16 07:23:49;;;;;;;135.48;75.18;;;;;;;3.30;100.00;102584.50;5001265;28;20468;-68
2022/03/16 07:26:15;;;;;;;134.32;74.82;;;;;;;3.35;100.00;102585.44;4983896;28;20121;-66
2022/03/16 07:28:40;;;;;;;138.18;77.18;;;;;;;3.41;100.00;102600.34;5003128;28;20493;-67
2022/03/16 07:31:08;;;;;;;132.40;75.43;;;;;;;3.45;100.00;102593.41;4986828;28;20043;-67
2022/03/16 07:33:34;;;;;;;139.18;76.50;;;;;;;3.50;100.00;102597.81;4987002;28;20594;-67
2022/03/16 07:35:59;;;;;;;119.78;71.95;;;;;;;3.56;100.00;102597.03;5008107;28;20831;-67
2022/03/16 07:38:25;;;;;;;126.35;73.10;;;;;;;3.64;100.00;102597.13;5007013;28;20046;-67
2022/03/16 07:40:50;;;;;;;146.63;79.60;;;;;;;3.71;100.00;102596.31;5004521;28;20045;-67
2022/03/16 07:43:16;;;;;;;194.65;85.65;;;;;;;3.81;100.00;102594.69;4988752;28;20037;-67
2022/03/16 07:45:41;;;;;;;210.98;86.60;;;;;;;3.91;100.00;102590.44;5005755;28;20041;-67
2022/03/16 07:48:07;;;;;;;131.85;76.32;;;;;;;4.01;100.00;102596.66;4988779;28;20029;-67
2022/03/16 07:50:33;;;;;;;124.82;76.80;;;;;;;4.08;100.00;102601.97;5005662;28;20029;-67
2022/03/16 07:52:59;;;;;;;144.82;80.10;;;;;;;4.19;100.00;102607.31;5004071;28;20060;-67
2022/03/16 07:55:25;;;;;;;131.80;81.72;;;;;;;4.31;100.00;102600.44;4990249;28;20045;-69
2022/03/16 07:57:52;;;;;;;156.00;82.07;;;;;;;4.41;100.00;102591.78;4985840;28;20049;-67
2022/03/16 08:00:18;;;;;;;131.65;79.05;;;;;;;4.52;100.00;102598.88;5004394;28;20951;-68
2022/03/16 08:02:44;;;;;;;130.40;79.20;;;;;;;4.61;100.00;102588.44;4991041;28;20055;-68
2022/03/16 08:05:10;;;;;;;115.32;76.22;;;;;;;4.69;100.00;102586.75;5005921;28;20069;-68
2022/03/16 08:07:36;;;;;;;127.53;81.97;;;;;;;4.79;100.00;102587.69;5005251;28;20606;-68
2022/03/16 08:10:01;;;;;;;117.80;77.47;;;;;;;4.88;100.00;102584.25;5004837;28;20049;-68
2022/03/16 08:12:27;;;;;;;119.32;77.00;;;;;;;4.98;100.00;102578.19;5006486;28;20476;-68
2022/03/16 08:14:53;;;;;;;112.28;72.95;;;;;;;5.08;100.00;102579.13;4989299;28;20470;-68
2022/03/16 08:17:18;;;;;;;106.68;71.20;;;;;;;5.19;100.00;102579.19;5004515;28;20033;-67
2022/03/16 08:19:44;;;;;;;105.57;68.25;;;;;;;5.28;100.00;102579.22;5004923;28;20038;-68
2022/03/16 08:22:10;;;;;;;101.32;68.63;;;;;;;5.40;100.00;102574.91;4984760;28;20323;-66
2022/03/16 08:24:36;;;;;;;95.50;62.47;;;;;;;5.50;100.00;102571.41;4975765;28;20432;-67
2022/03/16 08:27:01;;;;;;;86.47;59.58;;;;;;;5.61;100.00;102574.06;5005365;28;20091;-68
2022/03/16 08:29:27;;;;;;;90.45;59.60;;;;;;;5.73;100.00;102564.47;4986979;28;21007;-69
2022/03/16 08:31:54;;;;;;;80.45;55.33;;;;;;;5.85;100.00;102570.63;5004104;28;20034;-68
2022/03/16 08:34:19;;;;;;;80.45;52.92;;;;;;;5.96;100.00;102561.91;5006237;28;20063;-69
2022/03/16 08:36:45;;;;;;;72.00;50.38;;;;;;;6.09;100.00;102561.06;5004645;28;20037;-69
2022/03/16 08:39:10;;;;;;;72.78;49.58;;;;;;;6.17;100.00;102557.56;5004109;28;20269;-67
2022/03/16 08:41:36;;;;;;;68.63;47.03;;;;;;;6.21;100.00;102554.94;5006884;28;20042;-67
2022/03/16 08:44:02;;;;;;;63.30;45.38;;;;;;;6.25;100.00;102561.97;5004945;28;20120;-67
2022/03/16 08:46:29;;;;;;;62.85;42.40;;;;;;;6.29;100.00;102562.84;4983395;28;20037;-67
2022/03/16 08:48:54;;;;;;;52.88;38.95;;;;;;;6.32;100.00;102552.31;4986670;28;20069;-66
2022/03/16 08:51:20;;;;;;;52.75;38.45;;;;;;;6.38;100.00;102547.03;5006366;28;20033;-67
2022/03/16 08:53:46;;;;;;;52.75;37.17;;;;;;;6.46;100.00;102543.53;5003818;28;20499;-67
2022/03/16 08:56:12;;;;;;;51.67;35.50;;;;;;;6.54;100.00;102544.38;4971626;28;20029;-67
2022/03/16 08:58:38;;;;;;;46.03;32.28;;;;;;;6.64;100.00;102542.63;5004677;28;20534;-67
2022/03/16 09:01:04;;;;;;;45.50;30.67;;;;;;;6.74;100.00;102538.22;5005218;28;20235;-67
2022/03/16 09:03:29;;;;;;;42.15;29.42;;;;;;;6.85;100.00;102536.44;5003729;28;20034;-67
2022/03/16 09:05:54;;;;;;;43.55;29.83;;;;;;;6.98;100.00;102520.63;5004366;28;20049;-67
2022/03/16 09:08:21;;;;;;;41.72;29.20;;;;;;;7.07;100.00;102521.47;5003042;28;20033;-67
2022/03/16 09:10:47;;;;;;;36.15;25.63;;;;;;;7.18;100.00;102510.00;5004912;28;20776;-67
2022/03/16 09:13:15;;;;;;;34.90;24.33;;;;;;;7.27;100.00;102517.88;5004738;28;20571;-67
2022/03/16 09:15:42;;;;;;;37.33;25.63;;;;;;;7.37;100.00;102518.69;5002365;28;20056;-67
2022/03/16 09:18:09;;;;;;;36.25;25.95;;;;;;;7.46;100.00;102529.19;5003100;28;20032;-67
2022/03/16 09:20:35;;;;;;;35.90;23.98;;;;;;;7.53;100.00;102526.50;5004543;28;21484;-67
2022/03/16 09:23:01;;;;;;;34.65;22.85;;;;;;;7.59;100.00;102522.06;4991699;28;20069;-66
2022/03/16 09:25:26;;;;;;;35.92;22.15;;;;;;;7.68;100.00;102526.41;5003497;28;20129;-66
2022/03/16 09:27:52;;;;;;;34.67;22.45;;;;;;;7.79;100.00;102522.84;4972285;28;20151;-66
2022/03/16 09:30:19;;;;;;;32.03;22.45;;;;;;;7.87;100.00;102516.63;5003223;28;20033;-67
2022/03/16 09:32:45;;;;;;;33.90;22.48;;;;;;;7.96;100.00;102510.41;5004759;28;20037;-66
2022/03/16 09:35:10;;;;;;;45.00;22.55;;;;;;;8.03;100.00;102500.69;4986495;28;20672;-66
2022/03/16 09:37:36;;;;;;;30.83;21.40;;;;;;;8.11;100.00;102493.56;5002604;28;20041;-68
2022/03/16 09:40:03;;;;;;;35.47;21.05;;;;;;;8.18;100.00;102496.16;5004555;28;20056;-69
2022/03/16 09:42:30;;;;;;;32.90;21.00;;;;;;;8.25;100.00;102495.22;5006705;28;20481;-69
2022/03/16 09:45:00;;;;;;;29.63;20.40;;;;;;;8.34;100.00;102488.97;4990830;28;20045;-69
2022/03/16 09:47:26;;;;;;;32.20;20.25;;;;;;;8.46;100.00;102487.97;4987264;28;20058;-68
2022/03/16 09:49:52;;;;;;;30.40;19.27;;;;;;;8.49;100.00;102480.91;4986829;28;20536;-68
2022/03/16 09:52:17;;;;;;;30.00;19.58;;;;;;;8.55;100.00;102480.88;5003516;28;21421;-68
2022/03/16 09:54:43;;;;;;;31.58;19.08;;;;;;;8.61;100.00;102479.91;4987249;28;20689;-67
2022/03/16 09:57:08;;;;;;;24.90;18.55;;;;;;;8.72;100.00;102479.78;5001654;28;20269;-69
2022/03/16 09:59:36;;;;;;;27.13;18.08;;;;;;;8.78;98.73;102474.44;5001723;28;20447;-67
2022/03/16 10:02:07;;;;;;;27.17;18.65;;;;;;;8.85;98.87;102475.25;4999835;28;20124;-67
2022/03/16 10:04:35;;;;;;;26.35;17.92;;;;;;;8.93;99.06;102483.09;5001498;28;20152;-68
2022/03/16 10:07:01;;;;;;;27.10;18.02;;;;;;;9.00;98.68;102475.97;4982897;28;20149;-68
2022/03/16 10:15:03;;;;;;;24.48;16.33;;;;;;;9.18;96.52;102469.56;5001615;28;20115;-69
2022/03/16 10:17:44;;;;;;;21.88;15.98;;;;;;;9.25;95.54;102471.22;4983961;28;20250;-69
2022/03/16 10:20:26;;;;;;;24.27;15.73;;;;;;;9.31;93.22;102475.56;5002014;28;20038;-69
2022/03/16 10:23:05;;;;;;;22.83;15.20;;;;;;;9.41;91.51;102476.31;5002516;28;20180;-69
2022/03/16 10:25:38;;;;;;;21.55;15.07;;;;;;;9.48;90.48;102468.25;5001901;28;20128;-69
2022/03/16 10:28:12;;;;;;;21.08;15.25;;;;;;;9.54;91.19;102461.13;5003553;28;20034;-69
2022/03/16 10:30:57;;;;;;;22.73;15.50;;;;;;;9.57;90.43;102461.06;5002397;28;20056;-69
2022/03/16 10:33:34;;;;;;;22.15;14.70;;;;;;;9.58;87.82;102460.19;5004120;28;20048;-69
2022/03/16 10:36:04;;;;;;;23.60;15.63;;;;;;;9.61;90.61;102458.38;4984411;28;20503;-69
2022/03/16 10:38:36;;;;;;;22.23;16.13;;;;;;;9.64;90.66;102454.78;5002097;28;20048;-70
2022/03/16 10:46:34;;;;;;;25.75;16.25;;;;;;;9.68;89.66;102452.97;5002515;28;20130;-69
2022/03/16 10:46:49;;;;;;;23.98;15.60;;;;;;;9.88;88.71;102460.59;5004176;28;20068;-69
2022/03/16 10:49:20;;;;;;;20.80;15.40;;;;;;;9.92;89.29;102446.41;5003598;28;20037;-69
2022/03/16 10:51:47;;;;;;;20.23;14.23;;;;;;;9.93;86.81;102445.53;5004650;28;20031;-69
2022/03/16 10:54:16;;;;;;;19.60;14.13;;;;;;;10.02;86.47;102448.00;4989673;28;20120;-70
2022/03/16 10:56:42;;;;;;;18.63;13.45;;;;;;;10.12;84.83;102447.81;5000862;28;20099;-69
2022/03/16 10:59:08;;;;;;;21.70;13.98;;;;;;;10.22;82.00;102449.41;4973435;28;20114;-69
2022/03/16 11:01:38;;;;;;;20.45;12.77;;;;;;;10.28;81.55;102453.72;5002494;28;20251;-69
2022/03/16 11:04:04;;;;;;;21.48;13.88;;;;;;;10.35;81.50;102451.84;4984863;28;20099;-69
2022/03/16 11:06:30;;;;;;;20.10;13.10;;;;;;;10.40;81.36;102450.84;5001304;28;20032;-69
2022/03/16 11:08:56;;;;;;;21.52;13.65;;;;;;;10.47;81.67;102446.34;5002853;28;20041;-69